Time;durP1;ratioP1;P1;durP2;ratioP2;P2;SDS_P1;SDS_P2;PMS_P1;PMS_P2;Temp;Humidity;BMP_temperature;BMP_pressure;BME280_temperature;BME280_humidity;BME280_pressure;Samples;Min_cycle;Max_cycle;Signal;HPM_P1;HPM_P2
2023/02/26 00:00:08;;;;;;;4.40;2.25;;;;;;;;;;4994931;28;20101;-53
2023/02/26 00:02:35;;;;;;;;;;;;;;;;;;4995887;28;20055;-53
2023/02/26 00:05:02;;;;;;;7.03;2.92;;;;;;;;;;4994825;28;19925;-53
2023/02/26 00:07:30;;;;;;;4.80;2.33;;;;;;;;;;4994821;28;20121;-56
2023/02/26 00:09:57;;;;;;;4.63;2.58;;;;;;;;;;4994837;28;20053;-52
2023/02/26 00:12:24;;;;;;;4.13;2.42;;;;;;;;;;4994741;28;20051;-56
2023/02/26 00:14:52;;;;;;;4.90;2.45;;;;;;;;;;4994574;28;20050;-50
2023/02/26 00:17:34;;;;;;;5.95;2.85;;;;;;;;;;4994631;28;20050;-52
2023/02/26 00:20:02;;;;;;;4.72;2.88;;;;;;;;;;4994382;28;20046;-55
2023/02/26 00:22:31;;;;;;;6.40;2.80;;;;;;;;;;4994745;28;20132;-53
2023/02/26 00:24:58;;;;;;;4.57;2.50;;;;;;;;;;4994778;28;20113;-53
2023/02/26 00:27:25;;;;;;;4.72;2.50;;;;;;;;;;4994335;28;20061;-55
2023/02/26 00:29:53;;;;;;;7.65;2.78;;;;;;;;;;4994249;28;20100;-53
2023/02/26 00:32:20;;;;;;;5.88;2.70;;;;;;;;;;4994326;28;20042;-52
2023/02/26 00:34:48;;;;;;;6.45;2.38;;;;;;;;;;4994468;28;20628;-57
2023/02/26 00:37:27;;;;;;;5.80;2.70;;;;;;;;;;5007527;23;20042;-60
2023/02/26 00:40:07;;;;;;;5.07;2.70;;;;;;;;;;5033521;28;20075;-60
2023/02/26 00:42:35;;;;;;;5.03;2.28;;;;;;;;;;5033471;28;20053;-60
2023/02/26 00:45:03;;;;;;;7.22;2.75;;;;;;;;;;5032527;28;20140;-60
2023/02/26 00:47:35;;;;;;;4.20;2.45;;;;;;;;;;5033560;28;20084;-59
2023/02/26 00:50:13;;;;;;;4.75;2.50;;;;;;;;;;5033425;28;20057;-60
2023/02/26 00:52:49;;;;;;;5.05;2.22;;;;;;;;;;5033702;28;20115;-58
2023/02/26 00:55:18;;;;;;;5.03;2.33;;;;;;;;;;5033576;28;20108;-57
2023/02/26 00:57:45;;;;;;;3.95;2.00;;;;;;;;;;5033667;28;20060;-60
2023/02/26 01:00:13;;;;;;;4.13;2.05;;;;;;;;;;5033098;28;20053;-60
2023/02/26 01:02:41;;;;;;;5.38;1.95;;;;;;;;;;5033827;28;20053;-60
2023/02/26 01:05:09;;;;;;;4.20;1.80;;;;;;;;;;5033285;28;20455;-60
2023/02/26 01:07:42;;;;;;;3.08;1.83;;;;;;;;;;5013739;28;20053;-60
2023/02/26 01:10:11;;;;;;;4.43;1.90;;;;;;;;;;5013419;28;20050;-60
2023/02/26 01:12:40;;;;;;;3.80;1.85;;;;;;;;;;5013401;28;20056;-59
2023/02/26 01:15:08;;;;;;;5.28;2.30;;;;;;;;;;5013274;28;20495;-58
2023/02/26 01:17:43;;;;;;;4.72;1.98;;;;;;;;;;5013285;28;20115;-59
2023/02/26 01:20:14;;;;;;;4.57;2.00;;;;;;;;;;5013046;28;20050;-59
2023/02/26 01:22:46;;;;;;;3.22;1.90;;;;;;;;;;5013133;28;20108;-59
2023/02/26 01:25:16;;;;;;;4.00;2.05;;;;;;;;;;5013038;28;20538;-59
2023/02/26 01:27:44;;;;;;;3.95;2.22;;;;;;;;;;5013237;28;20054;-59
2023/02/26 01:30:12;;;;;;;3.95;2.00;;;;;;;;;;5012930;28;20108;-59
2023/02/26 01:32:44;;;;;;;4.03;1.67;;;;;;;;;;5013151;28;20112;-59
2023/02/26 01:35:22;;;;;;;4.28;1.98;;;;;;;;;;5013414;28;20100;-59
2023/02/26 01:37:55;;;;;;;4.53;2.25;;;;;;;;;;5012802;28;20104;-59
2023/02/26 01:40:35;;;;;;;4.55;2.20;;;;;;;;;;5012640;28;20491;-59
2023/02/26 01:43:10;;;;;;;4.75;2.20;;;;;;;;;;5013098;28;20053;-59
2023/02/26 01:45:45;;;;;;;4.82;2.15;;;;;;;;;;5013031;28;20049;-59
2023/02/26 01:48:22;;;;;;;3.55;2.13;;;;;;;;;;5012706;28;20050;-59
2023/02/26 01:50:48;;;;;;;4.63;2.17;;;;;;;;;;5012434;28;20058;-59
2023/02/26 01:53:21;;;;;;;4.70;2.10;;;;;;;;;;5012677;28;20062;-59
2023/02/26 01:55:51;;;;;;;4.60;2.45;;;;;;;;;;5012304;28;20112;-59
2023/02/26 01:58:21;;;;;;;4.73;2.40;;;;;;;;;;5012842;28;20527;-59
2023/02/26 02:00:48;;;;;;;5.23;2.30;;;;;;;;;;5012949;28;20275;-59
2023/02/26 02:03:15;;;;;;;4.70;2.00;;;;;;;;;;5012553;28;20057;-58
2023/02/26 02:05:44;;;;;;;4.25;2.00;;;;;;;;;;5017018;28;20052;-59
2023/02/26 02:08:12;;;;;;;4.65;2.22;;;;;;;;;;5032196;28;20057;-59
2023/02/26 02:10:43;;;;;;;3.95;1.92;;;;;;;;;;5032250;28;20514;-59
2023/02/26 02:13:16;;;;;;;;;;;;;;;;;;5032660;28;20060;-59
2023/02/26 02:15:51;;;;;;;4.22;2.30;;;;;;;;;;5031990;28;19921;-59
2023/02/26 02:18:24;;;;;;;5.47;2.22;;;;;;;;;;5031965;28;20490;-59
2023/02/26 02:21:07;;;;;;;3.30;2.03;;;;;;;;;;5031761;28;20103;-59
2023/02/26 02:23:40;;;;;;;5.20;1.83;;;;;;;;;;5032082;28;20111;-59
2023/02/26 02:26:48;;;;;;;5.07;2.10;;;;;;;;;;5032017;28;20460;-57
2023/02/26 02:29:51;;;;;;;5.88;2.42;;;;;;;;;;5031979;28;20103;-59
2023/02/26 02:32:22;;;;;;;4.72;2.03;;;;;;;;;;5031722;28;20056;-59
2023/02/26 02:34:54;;;;;;;4.30;2.03;;;;;;;;;;5031771;28;20049;-59
2023/02/26 02:37:27;;;;;;;4.88;2.20;;;;;;;;;;5031952;28;20053;-59
2023/02/26 02:40:00;;;;;;;6.22;2.22;;;;;;;;;;5031829;28;20506;-59
2023/02/26 02:42:33;;;;;;;5.32;2.10;;;;;;;;;;5031666;28;20049;-59
2023/02/26 02:45:05;;;;;;;5.63;2.40;;;;;;;;;;5031785;28;20498;-59
2023/02/26 02:47:37;;;;;;;4.97;2.40;;;;;;;;;;5031793;28;20042;-59
2023/02/26 02:50:09;;;;;;;4.22;2.17;;;;;;;;;;5031747;28;20437;-59
2023/02/26 02:52:41;;;;;;;3.95;2.25;;;;;;;;;;5031619;28;20498;-59
2023/02/26 02:55:13;;;;;;;4.88;2.40;;;;;;;;;;5031761;28;20054;-59
2023/02/26 02:57:43;;;;;;;5.97;2.38;;;;;;;;;;5031624;28;20052;-59
2023/02/26 03:00:13;;;;;;;4.45;2.00;;;;;;;;;;5031479;28;20091;-59
2023/02/26 03:02:47;;;;;;;3.60;1.90;;;;;;;;;;5031640;28;20050;-59
2023/02/26 03:05:15;;;;;;;3.30;1.60;;;;;;;;;;5030759;28;20045;-59
2023/02/26 03:07:47;;;;;;;4.88;1.95;;;;;;;;;;5013868;28;20096;-61
2023/02/26 03:10:15;;;;;;;3.88;1.63;;;;;;;;;;5015548;28;20050;-57
2023/02/26 03:12:41;;;;;;;3.70;1.70;;;;;;;;;;5015676;28;20050;-57
2023/02/26 03:15:09;;;;;;;3.80;1.92;;;;;;;;;;5015661;28;20101;-60
2023/02/26 03:17:46;;;;;;;4.00;1.80;;;;;;;;;;5015394;28;20495;-59
2023/02/26 03:20:20;;;;;;;4.78;2.42;;;;;;;;;;5015113;28;20392;-60
2023/02/26 03:22:57;;;;;;;4.72;1.60;;;;;;;;;;5015786;28;20050;-59
2023/02/26 03:25:27;;;;;;;3.78;1.80;;;;;;;;;;5015392;28;20451;-59
2023/02/26 03:28:01;;;;;;;5.03;1.75;;;;;;;;;;5015255;28;20049;-58
2023/02/26 03:30:35;;;;;;;4.13;1.83;;;;;;;;;;5015415;28;20411;-59
2023/02/26 03:33:09;;;;;;;3.80;1.50;;;;;;;;;;5015296;28;20054;-59
2023/02/26 03:35:44;;;;;;;5.07;2.00;;;;;;;;;;5015204;28;20104;-60
2023/02/26 03:38:16;;;;;;;4.25;1.60;;;;;;;;;;5015007;28;20172;-60
2023/02/26 03:40:47;;;;;;;4.68;1.90;;;;;;;;;;5014868;28;20403;-59
2023/02/26 03:43:20;;;;;;;5.03;1.70;;;;;;;;;;5015244;28;20110;-60
2023/02/26 03:45:51;;;;;;;3.35;1.73;;;;;;;;;;5015085;28;20116;-60
2023/02/26 03:48:24;;;;;;;4.55;1.90;;;;;;;;;;5014982;28;20053;-59
2023/02/26 03:50:55;;;;;;;5.22;1.60;;;;;;;;;;5014792;28;20045;-59
2023/02/26 03:53:24;;;;;;;5.35;1.98;;;;;;;;;;5015009;28;20387;-60
2023/02/26 03:55:58;;;;;;;3.38;2.10;;;;;;;;;;5015026;28;20054;-60
2023/02/26 03:58:25;;;;;;;5.70;1.88;;;;;;;;;;5014912;28;20058;-60
2023/02/26 04:00:57;;;;;;;4.43;1.80;;;;;;;;;;5014793;28;20506;-60
2023/02/26 04:03:30;;;;;;;5.45;2.22;;;;;;;;;;5014685;28;20053;-59
2023/02/26 04:05:58;;;;;;;4.60;1.60;;;;;;;;;;5021428;28;20521;-59
2023/02/26 04:08:25;;;;;;;4.85;1.85;;;;;;;;;;5034350;28;20100;-59
2023/02/26 04:10:55;;;;;;;3.72;1.92;;;;;;;;;;5034166;28;20053;-59
2023/02/26 04:13:22;;;;;;;3.97;1.88;;;;;;;;;;5034518;28;20056;-59
2023/02/26 04:15:48;;;;;;;6.43;2.00;;;;;;;;;;5034233;28;20107;-59
2023/02/26 04:18:15;;;;;;;3.67;1.90;;;;;;;;;;5034004;28;20067;-59
2023/02/26 04:20:43;;;;;;;6.32;2.08;;;;;;;;;;5034461;28;20049;-58
2023/02/26 04:23:10;;;;;;;5.95;2.22;;;;;;;;;;5034533;28;20406;-59
2023/02/26 04:25:37;;;;;;;6.72;2.38;;;;;;;;;;5034607;28;20472;-60
2023/02/26 04:28:04;;;;;;;4.80;1.75;;;;;;;;;;5034159;28;20054;-54
2023/02/26 04:30:31;;;;;;;3.85;1.95;;;;;;;;;;5034182;28;20103;-54
2023/02/26 04:32:58;;;;;;;3.63;1.70;;;;;;;;;;5033739;28;20417;-56
2023/02/26 04:35:25;;;;;;;5.63;1.83;;;;;;;;;;5033900;28;20096;-54
2023/02/26 04:37:53;;;;;;;4.53;1.88;;;;;;;;;;5033497;28;20045;-53
2023/02/26 04:40:20;;;;;;;4.35;2.17;;;;;;;;;;5033443;28;20107;-57
2023/02/26 04:42:46;;;;;;;4.05;2.22;;;;;;;;;;5033849;28;20465;-56
2023/02/26 04:45:13;;;;;;;2.97;1.45;;;;;;;;;;5033653;28;20053;-55
2023/02/26 04:47:40;;;;;;;6.20;1.98;;;;;;;;;;5033282;28;20057;-56
2023/02/26 04:50:08;;;;;;;5.10;1.77;;;;;;;;;;5033480;28;20107;-55
2023/02/26 04:52:34;;;;;;;4.00;1.80;;;;;;;;;;5033336;28;20095;-56
2023/02/26 04:55:03;;;;;;;6.70;1.77;;;;;;;;;;5033460;28;20045;-56
2023/02/26 04:57:30;;;;;;;5.68;2.60;;;;;;;;;;5033221;28;20395;-56
2023/02/26 04:59:56;;;;;;;5.00;1.65;;;;;;;;;;5033308;28;20053;-55
2023/02/26 05:02:23;;;;;;;5.63;1.80;;;;;;;;;;5032922;28;20384;-57
2023/02/26 05:04:50;;;;;;;3.05;1.50;;;;;;;;;;5033498;28;20498;-56
2023/02/26 05:07:17;;;;;;;5.68;1.70;;;;;;;;;;5015634;28;20415;-53
2023/02/26 05:09:44;;;;;;;3.78;1.80;;;;;;;;;;5013362;28;20100;-54
2023/02/26 05:12:12;;;;;;;4.40;1.80;;;;;;;;;;5013200;28;20049;-57
2023/02/26 05:14:38;;;;;;;4.65;1.67;;;;;;;;;;5013354;28;20396;-56
2023/02/26 05:17:05;;;;;;;3.15;1.58;;;;;;;;;;5013182;28;20386;-51
2023/02/26 05:19:32;;;;;;;4.47;1.90;;;;;;;;;;5013084;28;20041;-55
2023/02/26 05:21:59;;;;;;;6.55;2.08;;;;;;;;;;5012851;28;20104;-51
2023/02/26 05:24:26;;;;;;;3.35;1.60;;;;;;;;;;5013078;28;20495;-54
2023/02/26 05:26:52;;;;;;;5.47;2.03;;;;;;;;;;5013691;28;20483;-54
2023/02/26 05:29:21;;;;;;;6.60;2.05;;;;;;;;;;5012344;28;20531;-56
2023/02/26 05:31:47;;;;;;;4.03;1.90;;;;;;;;;;5012699;28;20062;-54
2023/02/26 05:34:14;;;;;;;3.85;1.67;;;;;;;;;;5012982;28;20109;-56
2023/02/26 05:36:41;;;;;;;4.72;2.15;;;;;;;;;;5012952;28;20104;-54
2023/02/26 05:39:09;;;;;;;5.60;2.03;;;;;;;;;;5012669;28;20116;-57
2023/02/26 05:41:36;;;;;;;3.83;1.70;;;;;;;;;;5012851;28;20104;-52
2023/02/26 05:44:02;;;;;;;3.10;1.48;;;;;;;;;;5012583;28;20569;-55
2023/02/26 05:46:30;;;;;;;5.70;1.83;;;;;;;;;;5012804;28;20128;-54
2023/02/26 05:48:57;;;;;;;5.53;2.30;;;;;;;;;;5012768;28;20054;-56
2023/02/26 05:51:24;;;;;;;6.57;1.98;;;;;;;;;;5012520;28;20104;-56
2023/02/26 05:53:51;;;;;;;5.30;1.83;;;;;;;;;;5012517;28;20046;-55
2023/02/26 05:56:17;;;;;;;3.78;1.88;;;;;;;;;;5012698;28;20057;-55
2023/02/26 05:58:44;;;;;;;4.05;1.88;;;;;;;;;;5012436;28;20128;-57
2023/02/26 06:01:11;;;;;;;10.75;2.08;;;;;;;;;;5012331;28;20100;-55
2023/02/26 06:03:43;;;;;;;3.78;1.90;;;;;;;;;;5012460;28;20058;-55
2023/02/26 06:06:09;;;;;;;6.35;2.15;;;;;;;;;;5020925;28;20053;-56
2023/02/26 06:08:37;;;;;;;4.70;2.00;;;;;;;;;;5032003;28;20045;-56
2023/02/26 06:11:04;;;;;;;4.95;2.15;;;;;;;;;;5032091;28;20502;-55
2023/02/26 06:13:31;;;;;;;5.45;1.98;;;;;;;;;;5032042;28;20053;-56
2023/02/26 06:15:57;;;;;;;3.40;1.67;;;;;;;;;;5031937;28;20524;-55
2023/02/26 06:18:24;;;;;;;4.22;1.70;;;;;;;;;;5032106;28;20054;-56
2023/02/26 06:20:52;;;;;;;4.47;1.58;;;;;;;;;;5031865;28;20053;-57
2023/02/26 06:23:19;;;;;;;5.32;1.80;;;;;;;;;;5031823;28;20045;-53
2023/02/26 06:25:46;;;;;;;6.13;2.20;;;;;;;;;;5031781;28;20046;-55
2023/02/26 06:28:13;;;;;;;8.18;2.20;;;;;;;;;;5031872;28;20079;-53
2023/02/26 06:30:40;;;;;;;4.85;2.00;;;;;;;;;;5031595;28;20053;-57
2023/02/26 06:33:06;;;;;;;5.25;1.83;;;;;;;;;;5031883;28;20414;-54
2023/02/26 06:35:33;;;;;;;4.65;2.15;;;;;;;;;;5031935;28;20056;-52
2023/02/26 06:38:01;;;;;;;6.28;2.65;;;;;;;;;;5031593;28;20045;-51
2023/02/26 06:40:29;;;;;;;3.60;1.98;;;;;;;;;;5031418;28;20518;-54
2023/02/26 06:42:56;;;;;;;5.15;1.92;;;;;;;;;;5035784;28;20049;-58
2023/02/26 06:45:23;;;;;;;4.88;2.15;;;;;;;;;;5035870;28;20053;-54
2023/02/26 06:47:50;;;;;;;7.38;2.20;;;;;;;;;;5035692;28;20065;-56
2023/02/26 06:50:17;;;;;;;5.82;2.40;;;;;;;;;;5035720;28;20104;-56
2023/02/26 06:52:44;;;;;;;6.85;2.33;;;;;;;;;;5035656;28;20057;-53
2023/02/26 06:55:13;;;;;;;5.57;2.45;;;;;;;;;;5035736;28;20111;-54
2023/02/26 06:57:40;;;;;;;5.25;2.13;;;;;;;;;;5035433;28;20510;-56
2023/02/26 07:00:08;;;;;;;7.28;2.05;;;;;;;;;;5035588;28;20065;-58
2023/02/26 07:02:35;;;;;;;5.72;2.20;;;;;;;;;;5035487;28;20107;-58
2023/02/26 07:05:02;;;;;;;4.95;2.00;;;;;;;;;;5035530;28;20115;-56
2023/02/26 07:07:28;;;;;;;5.20;2.55;;;;;;;;;;5016344;28;20561;-56
2023/02/26 07:09:55;;;;;;;10.38;2.42;;;;;;;;;;5015778;28;20057;-52
2023/02/26 07:12:23;;;;;;;7.55;2.10;;;;;;;;;;5015274;28;20100;-55
2023/02/26 07:14:50;;;;;;;6.03;2.10;;;;;;;;;;5015327;28;20487;-58
2023/02/26 07:17:19;;;;;;;6.85;2.47;;;;;;;;;;5015368;28;20053;-56
2023/02/26 07:19:46;;;;;;;5.40;2.60;;;;;;;;;;5015149;28;20100;-54
2023/02/26 07:22:13;;;;;;;5.53;2.63;;;;;;;;;;5015115;28;20116;-57
2023/02/26 07:24:40;;;;;;;6.60;2.30;;;;;;;;;;5015366;28;20079;-56
2023/02/26 07:27:07;;;;;;;6.28;2.42;;;;;;;;;;5015348;28;20050;-57
2023/02/26 07:29:35;;;;;;;6.63;2.50;;;;;;;;;;5015223;28;20050;-55
2023/02/26 07:32:03;;;;;;;7.22;2.17;;;;;;;;;;5015092;28;20454;-54
2023/02/26 07:34:29;;;;;;;4.25;2.22;;;;;;;;;;5015126;28;20467;-54
2023/02/26 07:36:57;;;;;;;4.10;2.40;;;;;;;;;;5015475;28;20046;-57
2023/02/26 07:39:25;;;;;;;6.38;2.22;;;;;;;;;;5015595;28;20080;-56
2023/02/26 07:41:52;;;;;;;5.70;2.60;;;;;;;;;;5015148;28;20053;-55
2023/02/26 07:44:19;;;;;;;6.55;2.83;;;;;;;;;;5015050;28;20054;-60
2023/02/26 07:46:47;;;;;;;7.32;2.70;;;;;;;;;;5015057;28;20522;-60
2023/02/26 07:49:14;;;;;;;6.60;2.83;;;;;;;;;;5014871;28;20057;-59
2023/02/26 07:51:44;;;;;;;4.95;2.40;;;;;;;;;;5014937;28;20058;-60
2023/02/26 07:54:11;;;;;;;7.90;2.65;;;;;;;;;;5014401;28;20569;-60
2023/02/26 07:56:40;;;;;;;6.88;2.38;;;;;;;;;;5014810;28;20056;-60
2023/02/26 07:59:07;;;;;;;4.10;2.20;;;;;;;;;;5014863;28;20053;-60
2023/02/26 08:01:34;;;;;;;3.92;2.22;;;;;;;;;;5014990;28;20120;-60
2023/02/26 08:04:02;;;;;;;5.28;2.38;;;;;;;;;;5014543;28;20053;-60
2023/02/26 08:06:29;;;;;;;5.15;2.40;;;;;;;;;;5025589;28;20053;-60
2023/02/26 08:08:56;;;;;;;8.82;2.90;;;;;;;;;;5034279;28;20103;-60
2023/02/26 08:11:23;;;;;;;5.45;2.55;;;;;;;;;;5034178;28;20064;-60
2023/02/26 08:13:50;;;;;;;5.95;2.38;;;;;;;;;;5034133;28;20041;-60
2023/02/26 08:16:17;;;;;;;4.80;2.22;;;;;;;;;;5034378;28;20464;-60
2023/02/26 08:18:44;;;;;;;6.10;2.90;;;;;;;;;;5034077;28;20260;-59
2023/02/26 08:21:12;;;;;;;5.45;2.88;;;;;;;;;;5034055;28;20107;-59
2023/02/26 08:23:39;;;;;;;5.35;2.28;;;;;;;;;;5033953;28;20050;-60
2023/02/26 08:26:07;;;;;;;5.15;2.60;;;;;;;;;;5034066;28;20405;-60
2023/02/26 08:28:36;;;;;;;6.20;2.72;;;;;;;;;;5033928;28;20119;-60
2023/02/26 08:31:05;;;;;;;4.72;2.40;;;;;;;;;;5033927;28;20053;-60
2023/02/26 08:33:32;;;;;;;4.10;2.40;;;;;;;;;;5033703;28;20054;-60
2023/02/26 08:36:00;;;;;;;4.50;2.20;;;;;;;;;;5033962;28;20057;-61
2023/02/26 08:38:29;;;;;;;5.05;2.30;;;;;;;;;;5033833;28;20045;-59
2023/02/26 08:40:56;;;;;;;5.45;2.58;;;;;;;;;;5033505;28;20403;-59
2023/02/26 08:43:23;;;;;;;5.25;2.53;;;;;;;;;;5033777;28;20050;-58
2023/02/26 08:45:52;;;;;;;5.65;2.60;;;;;;;;;;5033835;28;20057;-58
2023/02/26 08:48:19;;;;;;;5.28;2.60;;;;;;;;;;5033548;28;20056;-59
2023/02/26 08:50:46;;;;;;;6.85;2.45;;;;;;;;;;5033384;28;20498;-59
2023/02/26 08:53:13;;;;;;;5.25;2.60;;;;;;;;;;5034062;28;20046;-57
2023/02/26 08:55:43;;;;;;;5.50;2.95;;;;;;;;;;5033281;28;20049;-59
2023/02/26 08:58:10;;;;;;;6.70;3.10;;;;;;;;;;5033542;28;20144;-60
2023/02/26 09:00:37;;;;;;;6.43;3.22;;;;;;;;;;5033353;28;20057;-61
2023/02/26 09:03:04;;;;;;;4.97;2.50;;;;;;;;;;5033502;28;20045;-58
2023/02/26 09:05:30;;;;;;;5.22;2.53;;;;;;;;;;5029434;28;20045;-60
2023/02/26 09:07:57;;;;;;;7.25;2.83;;;;;;;;;;5013931;28;20054;-60
2023/02/26 09:10:24;;;;;;;7.28;2.80;;;;;;;;;;5013592;28;20203;-60
2023/02/26 09:12:52;;;;;;;6.35;2.85;;;;;;;;;;5013484;28;20112;-60
2023/02/26 09:15:19;;;;;;;7.00;2.95;;;;;;;;;;5013439;28;20054;-60
2023/02/26 09:17:47;;;;;;;5.18;2.67;;;;;;;;;;5013428;28;20455;-59
2023/02/26 09:20:15;;;;;;;5.50;2.75;;;;;;;;;;5013567;28;20503;-58
2023/02/26 09:22:42;;;;;;;6.07;3.15;;;;;;;;;;5013598;28;20054;-60
2023/02/26 09:25:11;;;;;;;5.45;2.67;;;;;;;;;;5013374;28;20049;-59
2023/02/26 09:27:38;;;;;;;5.28;2.75;;;;;;;;;;5013138;28;20050;-60
2023/02/26 09:30:07;;;;;;;5.15;2.95;;;;;;;;;;5013335;28;20054;-60
2023/02/26 09:32:34;;;;;;;5.47;3.05;;;;;;;;;;5013376;28;20127;-60
2023/02/26 09:35:01;;;;;;;5.18;2.80;;;;;;;;;;5013581;28;20054;-59
2023/02/26 09:37:28;;;;;;;7.53;3.53;;;;;;;;;;5012969;28;20474;-60
2023/02/26 09:39:55;;;;;;;6.80;3.17;;;;;;;;;;5012874;28;20054;-59
2023/02/26 09:42:35;;;;;;;6.22;3.13;;;;;;;;;;5012677;28;20135;-59
2023/02/26 09:45:04;;;;;;;6.00;3.42;;;;;;;;;;5013056;28;20396;-60
2023/02/26 09:47:40;;;;;;;5.38;3.08;;;;;;;;;;5012880;28;20052;-60
2023/02/26 09:50:15;;;;;;;6.72;3.65;;;;;;;;;;5012650;28;20050;-59
2023/02/26 09:52:46;;;;;;;6.25;3.40;;;;;;;;;;5012755;28;20049;-60
2023/02/26 09:55:18;;;;;;;5.43;3.55;;;;;;;;;;5012633;28;20061;-59
2023/02/26 09:57:49;;;;;;;9.07;4.18;;;;;;;;;;5013004;28;20057;-59
2023/02/26 10:00:24;;;;;;;7.10;4.07;;;;;;;;;;5012324;28;20575;-60
2023/02/26 10:03:03;;;;;;;6.68;3.85;;;;;;;;;;5012417;28;20049;-60
2023/02/26 10:05:39;;;;;;;7.45;3.78;;;;;;;;;;5015479;28;20061;-59
2023/02/26 10:08:12;;;;;;;6.80;4.00;;;;;;;;;;5032326;28;20053;-60
2023/02/26 10:10:49;;;;;;;7.75;4.47;;;;;;;;;;5032987;28;20052;-60
2023/02/26 10:13:23;;;;;;;7.15;3.80;;;;;;;;;;5032123;28;20103;-59
2023/02/26 10:15:52;;;;;;;7.40;3.92;;;;;;;;;;5031581;28;20095;-57
2023/02/26 10:18:26;;;;;;;7.72;4.20;;;;;;;;;;5031929;28;20050;-59
2023/02/26 10:20:58;;;;;;;7.70;4.40;;;;;;;;;;5031572;28;20099;-58
2023/02/26 10:23:30;;;;;;;7.93;4.22;;;;;;;;;;5031846;28;20053;-59
2023/02/26 10:26:05;;;;;;;7.20;4.15;;;;;;;;;;5031956;28;20049;-60
2023/02/26 10:28:54;;;;;;;6.57;3.55;;;;;;;;;;5031837;28;20053;-60
2023/02/26 10:31:27;;;;;;;6.20;3.47;;;;;;;;;;5031685;28;20080;-59
2023/02/26 10:34:07;;;;;;;6.65;4.13;;;;;;;;;;5031813;28;20053;-59
2023/02/26 10:36:43;;;;;;;7.13;4.20;;;;;;;;;;5031780;28;20057;-59
2023/02/26 10:39:27;;;;;;;6.88;4.05;;;;;;;;;;5031618;28;20111;-57
2023/02/26 10:41:53;;;;;;;6.90;3.88;;;;;;;;;;5031469;28;20413;-59
2023/02/26 10:44:27;;;;;;;6.85;3.80;;;;;;;;;;5031786;28;20108;-59
2023/02/26 10:47:05;;;;;;;5.70;3.92;;;;;;;;;;5031557;28;20503;-59
2023/02/26 10:49:52;;;;;;;6.65;3.97;;;;;;;;;;5031740;28;20099;-59
2023/02/26 10:52:21;;;;;;;7.18;4.18;;;;;;;;;;5031745;28;20060;-59
2023/02/26 10:55:10;;;;;;;6.53;3.65;;;;;;;;;;5031607;28;20049;-60
2023/02/26 10:57:42;;;;;;;6.88;3.92;;;;;;;;;;5031408;28;20100;-60
2023/02/26 11:00:17;;;;;;;6.90;4.03;;;;;;;;;;5031463;28;20053;-60
2023/02/26 11:02:46;;;;;;;6.32;3.70;;;;;;;;;;5031329;28;20454;-59
2023/02/26 11:05:17;;;;;;;6.03;3.70;;;;;;;;;;5030969;28;20049;-59
2023/02/26 11:07:47;;;;;;;6.78;3.60;;;;;;;;;;5011642;28;20058;-57
2023/02/26 11:10:17;;;;;;;10.10;5.60;;;;;;;;;;5011850;28;20050;-59
2023/02/26 11:12:44;;;;;;;8.70;4.80;;;;;;;;;;5011912;28;20050;-57
2023/02/26 11:15:15;;;;;;;6.72;4.05;;;;;;;;;;5011977;28;20108;-59
2023/02/26 11:17:42;;;;;;;7.68;4.15;;;;;;;;;;5011633;28;20415;-57
2023/02/26 11:20:30;;;;;;;6.63;4.00;;;;;;;;;;5011519;28;20075;-57
2023/02/26 11:22:59;;;;;;;5.60;3.78;;;;;;;;;;5011676;28;20053;-59
2023/02/26 11:25:30;;;;;;;6.63;3.58;;;;;;;;;;5012118;28;20065;-59
2023/02/26 11:27:59;;;;;;;;;;;;;;;;;;5012931;28;20225;-58
2023/02/26 11:30:27;;;;;;;4.88;2.90;;;;;;;;;;5015310;28;19928;-59
2023/02/26 11:32:59;;;;;;;8.38;4.10;;;;;;;;;;5015517;28;20100;-60
2023/02/26 11:35:27;;;;;;;6.45;3.83;;;;;;;;;;5015247;28;20054;-60
2023/02/26 11:37:58;;;;;;;6.55;3.70;;;;;;;;;;5015305;28;20100;-59
2023/02/26 11:40:33;;;;;;;7.22;3.70;;;;;;;;;;5015374;28;20049;-59
2023/02/26 11:43:04;;;;;;;6.72;3.60;;;;;;;;;;5015664;28;20050;-60
2023/02/26 11:45:35;;;;;;;7.03;3.60;;;;;;;;;;5015318;28;20104;-60
2023/02/26 11:48:05;;;;;;;5.53;2.95;;;;;;;;;;5014954;28;20057;-60
2023/02/26 11:50:40;;;;;;;5.20;3.08;;;;;;;;;;5015140;28;20054;-59
2023/02/26 11:53:15;;;;;;;6.43;3.47;;;;;;;;;;5014973;28;20053;-59
2023/02/26 11:55:46;;;;;;;6.47;3.65;;;;;;;;;;5015181;28;20050;-59
2023/02/26 11:58:19;;;;;;;6.82;3.50;;;;;;;;;;5015651;28;20054;-60
2023/02/26 12:00:48;;;;;;;7.10;3.22;;;;;;;;;;5014614;28;20092;-60
2023/02/26 12:03:20;;;;;;;5.78;3.58;;;;;;;;;;5014720;28;20459;-59
2023/02/26 12:05:49;;;;;;;6.10;3.22;;;;;;;;;;5020496;28;20564;-61
2023/02/26 12:08:24;;;;;;;6.10;3.70;;;;;;;;;;5034533;28;20053;-58
2023/02/26 12:11:06;;;;;;;9.00;3.38;;;;;;;;;;5034476;28;20049;-59
2023/02/26 12:13:39;;;;;;;6.50;3.67;;;;;;;;;;5034102;28;20053;-59
2023/02/26 12:16:14;;;;;;;5.30;3.00;;;;;;;;;;5034243;28;20057;-59
2023/02/26 12:18:58;;;;;;;5.32;3.28;;;;;;;;;;5034071;28;20055;-58
2023/02/26 12:21:44;;;;;;;5.65;3.03;;;;;;;;;;5033684;28;20088;-59
2023/02/26 12:24:41;;;;;;;5.07;2.65;;;;;;;;;;5034149;28;20467;-60
2023/02/26 12:27:23;;;;;;;6.22;2.97;;;;;;;;;;5000793;28;20057;-59
2023/02/26 12:30:09;;;;;;;6.25;2.92;;;;;;;;;;5034174;28;20049;-59
2023/02/26 12:33:06;;;;;;;7.80;3.38;;;;;;;;;;5034377;28;20053;-60
2023/02/26 12:35:42;;;;;;;5.18;2.70;;;;;;;;;;5034008;28;20494;-60
2023/02/26 12:38:19;;;;;;;4.20;2.47;;;;;;;;;;5044376;22;20029;-58
2023/02/26 12:41:25;;;;;;;5.15;3.00;;;;;;;;;;5033721;28;20132;-56
2023/02/26 12:43:54;;;;;;;6.32;2.63;;;;;;;;;;5033780;28;20471;-57
2023/02/26 12:46:42;;;;;;;5.47;2.63;;;;;;;;;;5033321;28;20103;-57
2023/02/26 12:49:41;;;;;;;5.55;2.65;;;;;;;;;;5013775;28;20112;-55
2023/02/26 12:52:49;;;;;;;4.85;2.53;;;;;;;;;;5010825;28;20490;-53
2023/02/26 12:55:27;;;;;;;5.80;2.83;;;;;;;;;;5013919;28;20056;-53
2023/02/26 12:58:12;;;;;;;5.72;2.63;;;;;;;;;;5013796;28;20050;-54
2023/02/26 13:00:53;;;;;;;4.13;2.35;;;;;;;;;;5013800;28;20088;-54
2023/02/26 13:03:43;;;;;;;8.15;2.65;;;;;;;;;;5013581;28;20495;-58
2023/02/26 13:06:45;;;;;;;5.05;2.30;;;;;;;;;;5013646;28;20096;-59
2023/02/26 13:09:25;;;;;;;8.73;3.38;;;;;;;;;;4953053;28;20051;-57
2023/02/26 13:12:08;;;;;;;4.45;2.38;;;;;;;;;;5007070;28;20115;-58
2023/02/26 13:14:45;;;;;;;5.03;2.33;;;;;;;;;;5013679;28;20384;-57
2023/02/26 13:17:21;;;;;;;5.47;2.30;;;;;;;;;;5013313;28;20099;-55
2023/02/26 13:19:52;;;;;;;4.70;2.35;;;;;;;;;;5013090;28;20136;-54
2023/02/26 13:22:22;;;;;;;3.92;2.10;;;;;;;;;;5012777;28;20046;-56
2023/02/26 13:24:56;;;;;;;6.65;2.47;;;;;;;;;;5013155;28;20062;-53
2023/02/26 13:27:28;;;;;;;5.00;2.47;;;;;;;;;;5031648;28;20053;-56
2023/02/26 13:30:19;;;;;;;6.03;2.70;;;;;;;;;;5032765;28;20506;-56
2023/02/26 13:32:48;;;;;;;5.25;2.45;;;;;;;;;;5033032;28;20053;-59
2023/02/26 13:35:21;;;;;;;7.63;2.80;;;;;;;;;;5032732;28;20119;-60
2023/02/26 13:37:52;;;;;;;4.90;2.38;;;;;;;;;;5032834;28;20049;-55
2023/02/26 13:40:38;;;;;;;4.82;2.45;;;;;;;;;;5032793;28;20554;-58
2023/02/26 13:43:16;;;;;;;5.78;2.78;;;;;;;;;;5031952;28;20045;-53
2023/02/26 13:45:56;;;;;;;7.22;3.03;;;;;;;;;;5032844;28;20449;-56
2023/02/26 13:48:33;;;;;;;4.77;2.47;;;;;;;;;;5032506;28;20052;-54
2023/02/26 13:51:08;;;;;;;4.63;2.60;;;;;;;;;;5031960;28;20046;-59
2023/02/26 13:53:51;;;;;;;7.35;3.25;;;;;;;;;;5032784;28;20687;-58
2023/02/26 13:56:22;;;;;;;7.75;3.38;;;;;;;;;;5032439;28;20049;-59
2023/02/26 13:58:54;;;;;;;6.18;2.85;;;;;;;;;;5032166;28;20391;-58
2023/02/26 14:01:28;;;;;;;6.22;2.95;;;;;;;;;;5032234;28;20053;-57
2023/02/26 14:04:09;;;;;;;5.60;2.30;;;;;;;;;;5032040;28;20095;-56
2023/02/26 14:06:39;;;;;;;4.65;2.50;;;;;;;;;;5032473;28;20418;-55
2023/02/26 14:09:37;;;;;;;6.32;2.42;;;;;;;;;;5032261;28;20060;-58
2023/02/26 14:12:04;;;;;;;8.73;2.42;;;;;;;;;;5032457;28;20045;-60
2023/02/26 14:14:37;;;;;;;5.93;2.60;;;;;;;;;;5032124;28;20045;-61
2023/02/26 14:17:41;;;;;;;5.05;2.47;;;;;;;;;;5032396;28;20041;-53
2023/02/26 14:20:23;;;;;;;6.13;3.33;;;;;;;;;;4971554;28;20109;-57
2023/02/26 14:23:12;;;;;;;5.72;2.53;;;;;;;;;;5027325;28;20541;-57
2023/02/26 14:25:40;;;;;;;6.20;2.83;;;;;;;;;;5032332;28;20045;-58
2023/02/26 14:28:40;;;;;;;4.72;2.55;;;;;;;;;;5032058;28;20234;-57
2023/02/26 14:31:20;;;;;;;4.43;2.33;;;;;;;;;;5006658;28;20057;-56
2023/02/26 14:33:59;;;;;;;5.03;2.50;;;;;;;;;;5031836;28;20053;-57
2023/02/26 14:36:35;;;;;;;4.32;1.95;;;;;;;;;;5032845;28;20049;-56
2023/02/26 14:39:08;;;;;;;5.07;1.90;;;;;;;;;;5031851;28;20398;-58
2023/02/26 14:41:39;;;;;;;5.03;2.15;;;;;;;;;;5032826;28;20058;-56
2023/02/26 14:44:14;;;;;;;4.78;2.55;;;;;;;;;;5032021;28;20052;-59
2023/02/26 14:46:44;;;;;;;5.35;2.17;;;;;;;;;;5032001;28;20094;-59
2023/02/26 14:49:18;;;;;;;3.90;2.13;;;;;;;;;;5032055;28;20517;-59
2023/02/26 14:52:00;;;;;;;5.50;2.00;;;;;;;;;;5031953;28;20042;-55
2023/02/26 14:54:57;;;;;;;3.92;1.95;;;;;;;;;;5032128;28;20049;-57
2023/02/26 14:57:33;;;;;;;6.38;2.10;;;;;;;;;;5031585;28;20291;-61
2023/02/26 15:00:17;;;;;;;4.60;2.05;;;;;;;;;;5031453;28;20042;-61
2023/02/26 15:03:01;;;;;;;6.72;2.70;;;;;;;;;;5031691;28;20049;-57
2023/02/26 15:05:40;;;;;;;7.35;2.38;;;;;;;;;;5036564;28;20045;-56
2023/02/26 15:08:21;;;;;;;4.68;1.70;;;;;;;;;;5035974;28;20421;-54
2023/02/26 15:11:04;;;;;;;4.18;2.00;;;;;;;;;;5035531;28;20049;-53